createdAt,value
2017-09-26T00:00:45.185Z,100178.42
2017-09-26T00:03:11.413Z,100178.33
2017-09-26T00:05:37.688Z,100174.18
2017-09-26T00:08:03.896Z,100177.17
2017-09-26T00:10:30.126Z,100179.63
2017-09-26T00:12:56.396Z,100176.03
2017-09-26T00:15:22.621Z,100173.94
2017-09-26T00:17:48.833Z,100166.72
2017-09-26T00:20:15.093Z,100167.66
2017-09-26T00:22:41.336Z,100170.11
2017-09-26T00:25:07.580Z,100160.30
2017-09-26T00:27:33.848Z,100161.05
2017-09-26T00:30:00.076Z,100157.78
2017-09-26T00:32:26.313Z,100155.27
2017-09-26T00:34:52.581Z,100158.80
2017-09-26T00:37:18.807Z,100161.41
2017-09-26T00:39:45.012Z,100153.67
2017-09-26T00:42:11.284Z,100163.52
2017-09-26T00:44:37.525Z,100164.03
2017-09-26T00:47:03.760Z,100166.34
2017-09-26T00:49:30.035Z,100162.30
2017-09-26T00:51:56.255Z,100169.30
2017-09-26T00:54:22.500Z,100168.46
2017-09-26T00:56:48.777Z,100169.34
2017-09-26T00:59:15.006Z,100172.17
2017-09-26T01:01:41.233Z,100175.84
2017-09-26T01:04:07.509Z,100178.09
2017-09-26T01:06:33.736Z,100175.65
2017-09-26T01:08:59.974Z,100176.19
2017-09-26T01:11:26.256Z,100174.91
2017-09-26T01:13:52.484Z,100180.19
2017-09-26T01:16:18.715Z,100183.84
2017-09-26T01:18:44.995Z,100178.90
2017-09-26T01:21:11.210Z,100181.32
2017-09-26T01:23:37.423Z,100178.68
2017-09-26T01:26:03.680Z,100182.36
2017-09-26T01:28:29.889Z,100185.48
2017-09-26T01:30:56.111Z,100190.70
2017-09-26T01:33:22.398Z,100188.66
2017-09-26T01:35:48.634Z,100184.91
2017-09-26T01:38:14.857Z,100178.93
2017-09-26T01:40:41.144Z,100170.94
2017-09-26T01:43:07.374Z,100175.11
2017-09-26T01:45:33.607Z,100167.78
2017-09-26T01:47:59.879Z,100169.70
2017-09-26T01:50:26.108Z,100160.64
2017-09-26T01:52:52.346Z,100168.20
2017-09-26T01:55:18.615Z,100168.93
2017-09-26T01:57:44.834Z,100165.41
2017-09-26T02:00:11.055Z,100161.38
2017-09-26T02:02:37.316Z,100162.13
2017-09-26T02:05:03.541Z,100160.91
2017-09-26T02:07:29.782Z,100159.20
2017-09-26T02:09:56.097Z,100158.14
2017-09-26T02:12:22.322Z,100161.12
2017-09-26T02:14:48.547Z,100157.28
2017-09-26T02:17:14.814Z,100156.05
2017-09-26T02:19:41.038Z,100154.77
2017-09-26T02:22:07.265Z,100160.62
2017-09-26T02:24:33.551Z,100170.53
2017-09-26T02:26:59.773Z,100159.90
2017-09-26T02:29:26.010Z,100162.32
2017-09-26T02:31:52.288Z,100166.22
2017-09-26T02:34:18.537Z,100165.09
2017-09-26T02:36:44.759Z,100161.41
2017-09-26T02:39:11.032Z,100162.64
2017-09-26T02:41:37.270Z,100163.73
2017-09-26T02:44:03.490Z,100165.38
2017-09-26T02:46:29.790Z,100161.81
2017-09-26T02:48:56.011Z,100156.34
2017-09-26T02:51:22.243Z,100154.45
2017-09-26T02:53:48.528Z,100146.55
2017-09-26T02:56:14.763Z,100138.53
2017-09-26T02:58:40.998Z,100140.64
2017-09-26T03:01:07.270Z,100137.84
2017-09-26T03:03:33.500Z,100146.09
2017-09-26T03:05:59.739Z,100136.88
2017-09-26T03:08:26.028Z,100139.86
2017-09-26T03:10:52.264Z,100138.82
2017-09-26T03:13:18.484Z,100140.80
2017-09-26T03:15:44.759Z,100141.08
2017-09-26T03:18:11.024Z,100138.72
2017-09-26T03:20:37.280Z,100141.39
2017-09-26T03:23:03.559Z,100138.83
2017-09-26T03:25:29.898Z,100146.20
2017-09-26T03:27:56.126Z,100143.06
2017-09-26T03:30:22.422Z,100145.64
2017-09-26T03:32:48.664Z,100147.47
2017-09-26T03:35:14.889Z,100155.27
2017-09-26T03:37:41.149Z,100155.80
2017-09-26T03:40:07.384Z,100155.95
2017-09-26T03:42:33.621Z,100163.67
2017-09-26T03:44:59.886Z,100160.83
2017-09-26T03:47:26.115Z,100161.28
2017-09-26T03:49:52.343Z,100158.75
2017-09-26T03:52:18.602Z,100159.89
2017-09-26T03:54:44.830Z,100151.31
2017-09-26T03:57:12.070Z,100151.94
2017-09-26T03:59:38.336Z,100146.81
2017-09-26T04:02:04.579Z,100155.34
2017-09-26T04:04:30.824Z,100156.22
2017-09-26T04:06:57.123Z,100155.17
2017-09-26T04:09:23.352Z,100160.82
2017-09-26T04:11:49.606Z,100159.02
2017-09-26T04:14:15.886Z,100155.90
2017-09-26T04:16:42.105Z,100157.34
2017-09-26T04:19:08.335Z,100161.45
2017-09-26T04:21:34.675Z,100157.16
2017-09-26T04:24:00.904Z,100158.11
2017-09-26T04:26:27.152Z,100158.89
2017-09-26T04:28:53.442Z,100162.03
2017-09-26T04:31:19.657Z,100164.57
2017-09-26T04:33:45.895Z,100153.22
2017-09-26T04:36:12.173Z,100160.20
2017-09-26T04:38:38.386Z,100163.75
2017-09-26T04:41:04.618Z,100166.33
2017-09-26T04:43:30.911Z,100166.81
2017-09-26T04:45:57.151Z,100167.25
2017-09-26T04:48:23.372Z,100164.52
2017-09-26T04:50:49.645Z,100166.61
2017-09-26T04:53:15.861Z,100164.33
2017-09-26T04:55:42.071Z,100167.22
2017-09-26T04:58:08.412Z,100161.64
2017-09-26T05:00:34.652Z,100167.34
2017-09-26T05:03:00.895Z,100165.53
2017-09-26T05:05:27.232Z,100161.26
2017-09-26T05:07:53.460Z,100152.30
2017-09-26T05:10:19.710Z,100162.69
2017-09-26T05:12:45.990Z,100157.85
2017-09-26T05:15:12.212Z,100161.79
2017-09-26T05:17:38.438Z,100159.83
2017-09-26T05:20:04.676Z,100163.36
2017-09-26T05:22:30.911Z,100161.52
2017-09-26T05:24:57.154Z,100162.23
2017-09-26T05:27:23.431Z,100166.42
2017-09-26T05:29:49.654Z,100165.33
2017-09-26T05:32:15.864Z,100160.86
2017-09-26T05:34:42.117Z,100165.95
2017-09-26T05:37:08.353Z,100171.66
2017-09-26T05:39:34.597Z,100169.95
2017-09-26T05:42:00.872Z,100168.33
2017-09-26T05:44:27.108Z,100167.31
2017-09-26T05:46:53.347Z,100160.05
2017-09-26T05:49:19.627Z,100162.08
2017-09-26T05:51:45.846Z,100165.25
2017-09-26T05:54:12.068Z,100160.89
2017-09-26T05:56:38.349Z,100152.41
2017-09-26T05:59:04.574Z,100161.98
2017-09-26T06:01:30.827Z,100141.66
2017-09-26T06:03:57.097Z,100170.72
2017-09-26T06:06:23.317Z,100169.17
2017-09-26T06:08:49.550Z,100163.39
2017-09-26T06:11:15.827Z,100165.34
2017-09-26T06:13:42.053Z,100167.46
2017-09-26T06:16:08.273Z,100165.97
2017-09-26T06:18:34.545Z,100161.98
2017-09-26T06:21:00.828Z,100165.97
2017-09-26T06:23:27.068Z,100171.00
2017-09-26T06:25:53.337Z,100171.30
2017-09-26T06:28:19.585Z,100163.89
2017-09-26T06:30:45.814Z,100176.02
2017-09-26T06:33:12.074Z,100174.66
2017-09-26T06:35:38.317Z,100178.92
2017-09-26T06:38:04.552Z,100182.63
2017-09-26T06:40:30.824Z,100179.23
2017-09-26T06:42:57.063Z,100177.20
2017-09-26T06:45:23.291Z,100180.31
2017-09-26T06:47:49.559Z,100186.70
2017-09-26T06:50:15.796Z,100189.28
2017-09-26T06:52:42.031Z,100183.91
2017-09-26T06:55:08.312Z,100188.52
2017-09-26T06:57:34.536Z,100185.61
2017-09-26T07:00:00.762Z,100181.70
2017-09-26T07:02:27.019Z,100188.66
2017-09-26T07:04:53.245Z,100197.77
2017-09-26T07:07:19.476Z,100195.19
2017-09-26T07:09:45.744Z,100202.94
2017-09-26T07:12:11.966Z,100195.19
2017-09-26T07:14:38.209Z,100200.16
2017-09-26T07:17:04.503Z,100196.78
2017-09-26T07:19:30.733Z,100202.50
2017-09-26T07:21:56.961Z,100205.76
2017-09-26T07:24:23.246Z,100207.86
2017-09-26T07:26:49.504Z,100204.76
2017-09-26T07:29:15.727Z,100211.13
2017-09-26T07:31:42.004Z,100209.84
2017-09-26T07:34:08.229Z,100219.42
2017-09-26T07:36:34.470Z,100217.48
2017-09-26T07:39:00.749Z,100216.16
2017-09-26T07:41:26.977Z,100222.04
2017-09-26T07:43:53.206Z,100214.33
2017-09-26T07:46:19.485Z,100218.20
2017-09-26T07:48:45.715Z,100214.30
2017-09-26T07:51:11.948Z,100208.02
2017-09-26T07:53:38.263Z,100205.10
2017-09-26T07:56:04.508Z,100197.83
2017-09-26T07:58:30.755Z,100199.52
2017-09-26T08:00:57.271Z,100199.81
2017-09-26T08:03:23.521Z,100189.58
2017-09-26T08:05:49.771Z,100187.92
2017-09-26T08:08:16.039Z,100185.61
2017-09-26T08:10:42.279Z,100179.99
2017-09-26T08:13:08.517Z,100180.81
2017-09-26T08:15:34.797Z,100180.17
2017-09-26T08:18:01.085Z,100170.17
2017-09-26T08:20:27.327Z,100175.08
2017-09-26T08:22:53.610Z,100170.13
2017-09-26T08:25:19.855Z,100169.34
2017-09-26T08:27:46.150Z,100167.81
2017-09-26T08:30:12.432Z,100172.66
2017-09-26T08:32:38.669Z,100159.53
2017-09-26T08:35:04.908Z,100167.16
2017-09-26T08:37:31.190Z,100168.30
2017-09-26T08:39:57.406Z,100159.33
2017-09-26T08:42:23.643Z,100155.21
2017-09-26T08:44:49.898Z,100153.90
2017-09-26T08:47:16.131Z,100148.99
2017-09-26T08:49:43.065Z,100148.44
2017-09-26T08:52:09.371Z,100140.42
2017-09-26T08:54:35.609Z,100129.63
2017-09-26T08:57:01.844Z,100125.31
2017-09-26T08:59:28.103Z,100124.81
2017-09-26T09:01:54.330Z,100118.53
2017-09-26T09:04:20.547Z,100122.11
2017-09-26T09:06:46.834Z,100122.88
2017-09-26T09:09:13.067Z,100128.08
2017-09-26T09:11:39.285Z,100124.70
2017-09-26T09:14:05.565Z,100130.12
2017-09-26T09:16:31.815Z,100131.38
2017-09-26T09:18:58.055Z,100136.46
2017-09-26T09:21:24.322Z,100135.94
2017-09-26T09:23:50.546Z,100132.99
2017-09-26T09:26:16.774Z,100127.68
2017-09-26T09:28:43.046Z,100136.94
2017-09-26T09:31:09.285Z,100133.81
2017-09-26T09:33:35.564Z,100143.92
2017-09-26T09:36:01.863Z,100142.89
2017-09-26T09:38:28.081Z,100137.12
2017-09-26T09:40:54.336Z,100138.46
2017-09-26T09:43:20.565Z,100134.29
2017-09-26T09:45:46.814Z,100140.00
2017-09-26T09:48:13.042Z,100146.39
2017-09-26T09:50:39.285Z,100132.23
2017-09-26T09:53:05.498Z,100146.16
2017-09-26T09:55:31.714Z,100145.08
2017-09-26T09:57:57.999Z,100143.52
2017-09-26T10:00:24.238Z,100148.35
2017-09-26T10:02:50.467Z,100148.09
2017-09-26T10:05:16.744Z,100149.72
2017-09-26T10:07:42.937Z,100147.83
2017-09-26T10:10:09.163Z,100144.48
2017-09-26T10:12:35.435Z,100146.84
2017-09-26T10:15:01.675Z,100150.31
2017-09-26T10:17:27.893Z,100151.34
2017-09-26T10:19:54.172Z,100152.42
2017-09-26T10:22:20.416Z,100144.53
2017-09-26T10:24:46.670Z,100148.16
2017-09-26T10:27:12.936Z,100146.48
2017-09-26T10:29:39.164Z,100142.03
2017-09-26T10:32:05.391Z,100143.88
2017-09-26T10:34:31.669Z,100143.41
2017-09-26T10:36:57.892Z,100146.55
2017-09-26T10:39:24.108Z,100139.67
2017-09-26T10:41:50.370Z,100142.48
2017-09-26T10:44:16.598Z,100140.84
2017-09-26T10:46:42.835Z,100129.56
2017-09-26T10:49:09.103Z,100125.75
2017-09-26T10:51:35.337Z,100126.59
2017-09-26T10:54:01.571Z,100126.11
2017-09-26T10:56:27.831Z,100128.66
2017-09-26T10:58:54.089Z,100129.13
2017-09-26T11:01:20.332Z,100125.09
2017-09-26T11:03:46.617Z,100120.87
2017-09-26T11:06:12.817Z,100123.03
2017-09-26T11:08:39.058Z,100118.34
2017-09-26T11:11:05.355Z,100119.50
2017-09-26T11:13:35.680Z,100109.12
2017-09-26T11:16:01.980Z,100116.80
2017-09-26T11:18:28.262Z,100119.92
2017-09-26T11:20:54.485Z,100116.95
2017-09-26T11:23:20.720Z,100119.38
2017-09-26T11:25:48.116Z,100120.45
2017-09-26T11:28:14.502Z,100114.34
2017-09-26T11:30:40.730Z,100110.88
2017-09-26T11:33:06.993Z,100103.70
2017-09-26T11:35:33.211Z,100103.39
2017-09-26T11:37:59.421Z,100108.61
2017-09-26T11:40:25.686Z,100101.26
2017-09-26T11:42:51.900Z,100097.96
2017-09-26T11:45:19.968Z,100097.48
2017-09-26T11:47:46.252Z,100102.97
2017-09-26T11:50:12.696Z,100102.84
2017-09-26T11:52:39.177Z,100098.39
2017-09-26T11:55:05.457Z,100094.00
2017-09-26T11:57:31.684Z,100093.75
2017-09-26T11:59:57.945Z,100099.89
2017-09-26T12:02:24.226Z,100097.75
2017-09-26T12:04:50.453Z,100088.09
2017-09-26T12:07:16.666Z,100089.44
2017-09-26T12:09:42.922Z,100092.22
2017-09-26T12:12:09.128Z,100085.24
2017-09-26T12:14:35.369Z,100086.31
2017-09-26T12:17:01.636Z,100083.67
2017-09-26T12:19:27.909Z,100080.13
2017-09-26T12:21:54.328Z,100080.61
2017-09-26T12:24:20.599Z,100077.81
2017-09-26T12:26:46.823Z,100071.47
2017-09-26T12:29:13.066Z,100069.71
2017-09-26T12:31:39.330Z,100071.73
2017-09-26T12:34:05.539Z,100067.41
2017-09-26T12:36:31.757Z,100058.80
2017-09-26T12:38:58.046Z,100061.09
2017-09-26T12:41:24.271Z,100062.77
2017-09-26T12:43:50.489Z,100067.84
2017-09-26T12:46:16.727Z,100070.91
2017-09-26T12:48:42.999Z,100080.80
2017-09-26T12:51:09.237Z,100088.70
2017-09-26T12:53:35.500Z,100087.67
2017-09-26T12:56:01.738Z,100089.97
2017-09-26T12:58:27.971Z,100094.00
2017-09-26T13:00:54.244Z,100101.79
2017-09-26T13:03:20.485Z,100109.42
2017-09-26T13:05:46.711Z,100102.78
2017-09-26T13:08:12.951Z,100099.92
2017-09-26T13:10:39.177Z,100106.05
2017-09-26T13:13:05.407Z,100111.55
2017-09-26T13:15:31.688Z,100110.88
2017-09-26T13:17:57.920Z,100104.36
2017-09-26T13:20:24.158Z,100104.78
2017-09-26T13:22:50.443Z,100099.08
2017-09-26T13:25:16.661Z,100093.78
2017-09-26T13:27:42.883Z,100097.53
2017-09-26T13:30:09.153Z,100097.45
2017-09-26T13:32:35.384Z,100088.27
2017-09-26T13:35:01.611Z,100093.97
2017-09-26T13:37:27.885Z,100091.94
2017-09-26T13:39:54.159Z,100093.64
2017-09-26T13:42:20.414Z,100094.13
2017-09-26T13:44:46.677Z,100091.45
2017-09-26T13:47:12.895Z,100098.69
2017-09-26T13:49:39.111Z,100100.73
2017-09-26T13:52:05.400Z,100099.00
2017-09-26T13:54:31.617Z,100100.09
2017-09-26T13:56:57.824Z,100109.38
2017-09-26T13:59:24.096Z,100106.03
2017-09-26T14:01:50.325Z,100110.55
2017-09-26T14:04:16.549Z,100113.27
2017-09-26T14:06:42.811Z,100110.86
2017-09-26T14:09:09.033Z,100112.93
2017-09-26T14:11:35.257Z,100114.29
2017-09-26T14:14:01.509Z,100112.15
2017-09-26T14:16:27.741Z,100111.20
2017-09-26T14:18:53.971Z,100114.36
2017-09-26T14:21:20.251Z,100112.08
2017-09-26T14:23:46.491Z,100109.77
2017-09-26T14:26:12.702Z,100111.29
2017-09-26T14:28:38.957Z,100110.77
2017-09-26T14:31:05.216Z,100111.59
2017-09-26T14:33:31.432Z,100104.27
2017-09-26T14:35:57.688Z,100109.30
2017-09-26T14:38:25.054Z,100115.26
2017-09-26T14:40:51.272Z,100105.31
2017-09-26T14:43:17.560Z,100114.55
2017-09-26T14:45:43.788Z,100118.36
2017-09-26T14:48:10.014Z,100123.39
2017-09-26T14:50:36.289Z,100129.20
2017-09-26T14:53:02.527Z,100125.13
2017-09-26T14:55:28.778Z,100129.91
2017-09-26T14:57:55.041Z,100127.33
2017-09-26T15:00:21.258Z,100140.65
2017-09-26T15:02:47.476Z,100145.52
2017-09-26T15:05:13.732Z,100144.02
2017-09-26T15:07:39.961Z,100146.30
2017-09-26T15:10:06.174Z,100147.92
2017-09-26T15:12:32.427Z,100154.38
2017-09-26T15:14:58.663Z,100157.16
2017-09-26T15:17:24.905Z,100161.89
2017-09-26T15:19:51.185Z,100161.48
2017-09-26T15:22:17.424Z,100164.05
2017-09-26T15:24:43.663Z,100162.25
2017-09-26T15:27:09.935Z,100156.31
2017-09-26T15:29:36.153Z,100160.89
2017-09-26T15:32:02.402Z,100163.61
2017-09-26T15:34:28.686Z,100164.83
2017-09-26T15:36:55.078Z,100164.52
2017-09-26T15:39:21.316Z,100161.12
2017-09-26T15:41:47.630Z,100158.64
2017-09-26T15:44:13.877Z,100161.27
2017-09-26T15:46:40.153Z,100169.55
2017-09-26T15:49:06.430Z,100173.48
2017-09-26T15:51:32.688Z,100157.78
2017-09-26T15:53:58.920Z,100171.48
2017-09-26T15:56:25.180Z,100182.66
2017-09-26T15:58:51.399Z,100186.28
2017-09-26T16:01:17.615Z,100196.86
2017-09-26T16:03:43.876Z,100192.59
2017-09-26T16:06:10.089Z,100189.55
2017-09-26T16:08:36.305Z,100187.87
2017-09-26T16:11:02.610Z,100191.66
2017-09-26T16:13:28.813Z,100193.06
2017-09-26T16:15:55.030Z,100194.70
2017-09-26T16:18:21.310Z,100194.70
2017-09-26T16:20:47.532Z,100193.98
2017-09-26T16:23:13.733Z,100195.05
2017-09-26T16:25:40.000Z,100200.08
2017-09-26T16:28:06.204Z,100206.87
2017-09-26T16:30:32.418Z,100207.96
2017-09-26T16:32:58.683Z,100209.99
2017-09-26T16:35:27.965Z,100215.68
2017-09-26T16:37:54.179Z,100215.53
2017-09-26T16:40:20.434Z,100221.45
2017-09-26T16:42:46.664Z,100216.50
2017-09-26T16:45:12.891Z,100218.61
2017-09-26T16:47:39.142Z,100227.02
2017-09-26T16:50:05.368Z,100228.16
2017-09-26T16:52:31.628Z,100235.27
2017-09-26T16:54:57.979Z,100233.91
2017-09-26T16:57:24.185Z,100231.00
2017-09-26T16:59:50.403Z,100238.56
2017-09-26T17:02:16.668Z,100241.85
2017-09-26T17:04:42.886Z,100249.41
2017-09-26T17:07:09.097Z,100248.74
2017-09-26T17:09:35.359Z,100254.31
2017-09-26T17:12:01.595Z,100259.53
2017-09-26T17:14:27.832Z,100259.46
2017-09-26T17:16:54.092Z,100265.75
2017-09-26T17:19:20.313Z,100267.27
2017-09-26T17:21:46.991Z,100277.16
2017-09-26T17:24:13.262Z,100276.06
2017-09-26T17:26:39.487Z,100286.61
2017-09-26T17:29:05.695Z,100290.17
2017-09-26T17:31:31.991Z,100288.37
2017-09-26T17:33:58.270Z,100298.81
2017-09-26T17:36:24.654Z,100295.28
2017-09-26T17:38:50.946Z,100303.72
2017-09-26T17:41:17.174Z,100312.27
2017-09-26T17:43:43.384Z,100307.98
2017-09-26T17:46:09.638Z,100307.64
2017-09-26T17:48:35.863Z,100313.89
2017-09-26T17:51:02.074Z,100311.99
2017-09-26T17:53:28.341Z,100317.61
2017-09-26T17:55:54.641Z,100322.33
2017-09-26T17:58:20.846Z,100315.16
2017-09-26T18:00:47.109Z,100317.09
2017-09-26T18:03:13.327Z,100318.92
2017-09-26T18:05:39.560Z,100315.27
2017-09-26T18:08:05.830Z,100322.61
2017-09-26T18:10:32.050Z,100319.05
2017-09-26T18:12:58.280Z,100314.64
2017-09-26T18:15:24.546Z,100328.65
2017-09-26T18:17:50.758Z,100338.58
2017-09-26T18:20:16.966Z,100333.39
2017-09-26T18:22:43.231Z,100336.13
2017-09-26T18:25:09.476Z,100335.09
2017-09-26T18:27:35.717Z,100334.72
2017-09-26T18:30:01.982Z,100336.39
2017-09-26T18:32:28.214Z,100338.09
2017-09-26T18:34:54.442Z,100360.42
2017-09-26T18:37:20.720Z,100343.06
2017-09-26T18:39:46.938Z,100338.53
2017-09-26T18:42:13.161Z,100335.20
2017-09-26T18:44:39.434Z,100336.05
2017-09-26T18:47:05.664Z,100341.59
2017-09-26T18:49:31.879Z,100345.59
2017-09-26T18:51:58.152Z,100355.89
2017-09-26T18:54:24.394Z,100350.41
2017-09-26T18:56:50.641Z,100347.55
2017-09-26T18:59:16.909Z,100356.77
2017-09-26T19:01:43.185Z,100366.00
2017-09-26T19:04:09.390Z,100363.86
2017-09-26T19:06:35.660Z,100370.98
2017-09-26T19:09:01.883Z,100370.25
2017-09-26T19:11:28.093Z,100371.42
2017-09-26T19:13:54.349Z,100375.35
2017-09-26T19:16:20.562Z,100375.00
2017-09-26T19:18:46.761Z,100378.59
2017-09-26T19:21:13.022Z,100378.28
2017-09-26T19:23:39.252Z,100377.91
2017-09-26T19:26:05.465Z,100381.03
2017-09-26T19:28:31.734Z,100381.41
2017-09-26T19:30:57.964Z,100391.30
2017-09-26T19:33:24.186Z,100388.72
2017-09-26T19:35:50.446Z,100385.78
2017-09-26T19:38:16.661Z,100393.84
2017-09-26T19:40:42.892Z,100389.41
2017-09-26T19:43:09.172Z,100395.14
2017-09-26T19:45:35.386Z,100396.73
2017-09-26T19:48:01.596Z,100399.07
2017-09-26T19:50:27.863Z,100399.86
2017-09-26T19:52:54.091Z,100407.48
2017-09-26T19:55:20.317Z,100404.17
2017-09-26T19:57:46.579Z,100407.19
2017-09-26T20:00:12.794Z,100409.51
2017-09-26T20:02:39.029Z,100399.00
2017-09-26T20:05:05.322Z,100411.95
2017-09-26T20:07:31.530Z,100415.05
2017-09-26T20:09:57.770Z,100411.45
2017-09-26T20:12:24.055Z,100415.48
2017-09-26T20:14:50.268Z,100410.84
2017-09-26T20:17:16.496Z,100418.65
2017-09-26T20:19:42.746Z,100414.42
2017-09-26T20:22:08.964Z,100412.00
2017-09-26T20:24:35.182Z,100418.73
2017-09-26T20:27:01.451Z,100412.66
2017-09-26T20:32:00.051Z,100423.09
2017-09-26T20:34:26.300Z,100413.42
2017-09-26T20:36:52.526Z,100420.39
2017-09-26T20:39:18.722Z,100417.34
2017-09-26T20:41:45.029Z,100421.08
2017-09-26T20:44:11.257Z,100416.48
2017-09-26T20:46:37.486Z,100423.86
2017-09-26T20:49:03.745Z,100418.72
2017-09-26T20:51:30.005Z,100421.03
2017-09-26T20:53:56.240Z,100425.46
2017-09-26T20:56:22.537Z,100417.90
2017-09-26T20:58:48.755Z,100412.73
2017-09-26T21:01:14.973Z,100423.32
2017-09-26T21:03:41.248Z,100422.61
2017-09-26T21:06:07.485Z,100423.45
2017-09-26T21:08:33.693Z,100422.22
2017-09-26T21:10:59.949Z,100426.53
2017-09-26T21:13:26.176Z,100423.05
2017-09-26T21:15:52.404Z,100422.63
2017-09-26T21:18:18.681Z,100417.88
2017-09-26T21:20:44.904Z,100417.72
2017-09-26T21:23:11.149Z,100420.72
2017-09-26T21:25:37.427Z,100416.37
2017-09-26T21:28:03.672Z,100416.99
2017-09-26T21:30:29.900Z,100419.49
2017-09-26T21:32:56.145Z,100416.55
2017-09-26T21:35:22.391Z,100424.91
2017-09-26T21:37:48.611Z,100424.13
2017-09-26T21:40:14.891Z,100431.72
2017-09-26T21:42:41.101Z,100433.06
2017-09-26T21:45:07.371Z,100430.73
2017-09-26T21:47:33.675Z,100430.97
2017-09-26T21:49:59.900Z,100433.44
2017-09-26T21:52:26.122Z,100441.09
2017-09-26T21:54:52.392Z,100445.36
2017-09-26T21:57:18.693Z,100431.80
2017-09-26T21:59:44.914Z,100433.44
2017-09-26T22:02:11.169Z,100440.20
2017-09-26T22:04:37.382Z,100439.38
2017-09-26T22:07:03.650Z,100447.98
2017-09-26T22:09:29.907Z,100441.34
2017-09-26T22:11:56.145Z,100444.13
2017-09-26T22:14:22.414Z,100440.20
2017-09-26T22:16:48.846Z,100442.48
2017-09-26T22:19:15.089Z,100440.92
2017-09-26T22:21:41.300Z,100439.62
2017-09-26T22:24:07.570Z,100447.56
2017-09-26T22:26:33.802Z,100449.54
2017-09-26T22:29:00.041Z,100444.58
2017-09-26T22:31:26.315Z,100449.91
2017-09-26T22:33:52.548Z,100445.80
2017-09-26T22:36:18.788Z,100442.45
2017-09-26T22:38:45.056Z,100449.33
2017-09-26T22:41:11.293Z,100447.56
2017-09-26T22:43:37.531Z,100446.58
2017-09-26T22:46:03.829Z,100456.45
2017-09-26T22:48:30.056Z,100458.74
2017-09-26T22:50:56.294Z,100455.91
2017-09-26T22:53:22.581Z,100462.89
2017-09-26T22:55:48.834Z,100460.50
2017-09-26T22:58:15.060Z,100461.19
2017-09-26T23:00:41.312Z,100465.38
2017-09-26T23:03:07.519Z,100467.59
2017-09-26T23:05:33.741Z,100465.95
2017-09-26T23:08:00.040Z,100461.43
2017-09-26T23:10:26.283Z,100464.66
2017-09-26T23:12:52.796Z,100470.38
2017-09-26T23:15:19.077Z,100468.37
2017-09-26T23:17:45.306Z,100474.23
2017-09-26T23:20:11.530Z,100470.71
2017-09-26T23:22:37.792Z,100466.44
2017-09-26T23:25:04.020Z,100476.31
2017-09-26T23:27:30.262Z,100478.59
2017-09-26T23:29:56.525Z,100472.02
2017-09-26T23:32:22.723Z,100471.33
2017-09-26T23:34:48.939Z,100476.89
2017-09-26T23:37:15.210Z,100477.42
2017-09-26T23:39:41.418Z,100477.55
2017-09-26T23:42:07.630Z,100483.13
2017-09-26T23:44:33.890Z,100483.01
2017-09-26T23:47:00.138Z,100490.55
2017-09-26T23:49:26.370Z,100489.11
2017-09-26T23:51:52.656Z,100475.95
2017-09-26T23:54:18.895Z,100478.66
2017-09-26T23:56:45.160Z,100480.05
2017-09-26T23:59:11.491Z,100483.65
